createdAt,value
2022-10-15T00:00:41.228Z,422.40
2022-10-15T00:03:07.907Z,426.30
2022-10-15T00:05:37.562Z,435.20
2022-10-15T00:08:04.494Z,423.60
2022-10-15T00:10:31.162Z,427.35
2022-10-15T00:12:58.071Z,423.98
2022-10-15T00:15:24.698Z,415.85
2022-10-15T00:17:51.272Z,420.77
2022-10-15T00:20:18.242Z,426.17
2022-10-15T00:22:44.883Z,426.45
2022-10-15T00:25:11.700Z,429.50
2022-10-15T00:27:38.566Z,425.40
2022-10-15T00:30:06.197Z,417.38
2022-10-15T00:32:33.628Z,423.40
2022-10-15T00:35:00.175Z,416.97
2022-10-15T00:37:26.882Z,423.88
2022-10-15T00:39:53.944Z,421.27
2022-10-15T00:42:21.096Z,427.38
2022-10-15T00:44:56.193Z,429.13
2022-10-15T00:47:37.522Z,425.55
2022-10-15T00:50:11.152Z,432.38
2022-10-15T00:52:44.028Z,438.38
2022-10-15T00:55:13.709Z,434.17
2022-10-15T00:57:41.271Z,442.88
2022-10-15T01:00:15.059Z,431.83
2022-10-15T01:02:43.590Z,438.08
2022-10-15T01:05:11.552Z,430.95
2022-10-15T01:07:40.066Z,422.33
2022-10-15T01:10:08.954Z,421.63
2022-10-15T01:13:01.880Z,411.15
2022-10-15T01:15:43.477Z,408.52
2022-10-15T01:18:18.123Z,401.85
2022-10-15T01:20:58.353Z,392.52
2022-10-15T01:23:57.679Z,402.92
2022-10-15T01:26:42.771Z,401.35
2022-10-15T01:29:38.167Z,398.77
2022-10-15T01:32:24.086Z,407.37
2022-10-15T01:35:05.230Z,406.60
2022-10-15T01:37:57.777Z,416.35
2022-10-15T01:40:31.222Z,407.33
2022-10-15T01:43:00.044Z,401.48
2022-10-15T01:45:49.806Z,403.40
2022-10-15T01:48:31.520Z,400.63
2022-10-15T01:51:02.191Z,398.23
2022-10-15T01:53:29.568Z,401.13
2022-10-15T01:56:00.658Z,400.58
2022-10-15T01:58:29.838Z,401.50
2022-10-15T02:00:58.611Z,403.08
2022-10-15T02:03:26.309Z,405.08
2022-10-15T02:06:06.471Z,412.25
2022-10-15T02:08:45.445Z,401.83
2022-10-15T02:11:18.503Z,407.40
2022-10-15T02:13:55.509Z,407.45
2022-10-15T02:16:40.612Z,405.40
2022-10-15T02:19:30.218Z,406.45
2022-10-15T02:22:32.263Z,399.85
2022-10-15T02:25:05.003Z,409.25
2022-10-15T02:27:34.072Z,403.10
2022-10-15T02:30:06.654Z,400.50
2022-10-15T02:32:35.428Z,411.65
2022-10-15T02:35:02.896Z,414.20
2022-10-15T02:37:31.365Z,410.45
2022-10-15T02:39:57.989Z,410.33
2022-10-15T02:42:25.485Z,412.20
2022-10-15T02:44:52.908Z,413.77
2022-10-15T02:47:19.704Z,412.83
2022-10-15T02:49:47.140Z,406.00
2022-10-15T02:52:14.093Z,417.67
2022-10-15T02:54:41.553Z,415.23
2022-10-15T02:57:08.185Z,415.60
2022-10-15T02:59:34.936Z,412.33
2022-10-15T03:02:02.110Z,412.67
2022-10-15T03:04:29.724Z,416.70
2022-10-15T03:06:58.001Z,413.80
2022-10-15T03:09:25.606Z,398.08
2022-10-15T03:11:52.213Z,425.53
2022-10-15T03:14:20.268Z,416.47
2022-10-15T03:16:46.885Z,416.52
2022-10-15T03:19:13.561Z,406.17
2022-10-15T03:21:40.782Z,405.03
2022-10-15T03:24:11.689Z,404.42
2022-10-15T03:26:38.346Z,406.35
2022-10-15T03:29:04.993Z,394.98
2022-10-15T03:31:36.158Z,408.40
2022-10-15T03:34:04.310Z,420.85
2022-10-15T03:36:31.442Z,412.17
2022-10-15T03:38:58.915Z,418.63
2022-10-15T03:41:25.680Z,409.47
2022-10-15T03:43:52.919Z,415.50
2022-10-15T03:46:19.874Z,409.10
2022-10-15T03:48:50.619Z,412.08
2022-10-15T03:51:22.744Z,418.38
2022-10-15T03:53:56.568Z,420.30
2022-10-15T03:56:23.811Z,417.40
2022-10-15T03:58:50.976Z,422.55
2022-10-15T04:01:18.816Z,409.27
2022-10-15T04:03:45.962Z,422.47
2022-10-15T04:06:15.709Z,414.95
2022-10-15T04:08:42.399Z,408.75
2022-10-15T04:11:22.759Z,402.98
2022-10-15T04:13:59.343Z,408.13
2022-10-15T04:16:26.178Z,410.45
2022-10-15T04:18:53.884Z,402.25
2022-10-15T04:21:21.514Z,415.20
2022-10-15T04:23:53.763Z,417.25
2022-10-15T04:26:26.841Z,415.38
2022-10-15T04:28:53.936Z,423.83
2022-10-15T04:31:22.669Z,412.25
2022-10-15T04:33:49.993Z,414.98
2022-10-15T04:38:56.153Z,403.85
2022-10-15T04:41:35.234Z,412.30
2022-10-15T04:44:08.608Z,411.02
2022-10-15T04:46:37.228Z,419.42
2022-10-15T04:49:19.539Z,414.45
2022-10-15T04:51:46.292Z,423.58
2022-10-15T04:54:17.911Z,415.35
2022-10-15T04:56:57.013Z,415.30
2022-10-15T04:59:24.326Z,405.30
2022-10-15T05:02:17.418Z,398.88
2022-10-15T05:04:48.209Z,407.23
2022-10-15T05:07:15.524Z,415.02
2022-10-15T05:09:46.161Z,420.17
2022-10-15T05:12:14.472Z,417.92
2022-10-15T05:14:41.884Z,414.02
2022-10-15T05:17:15.649Z,400.35
2022-10-15T05:19:46.293Z,411.13
2022-10-15T05:22:20.423Z,421.88
2022-10-15T05:24:51.970Z,408.02
2022-10-15T05:27:27.042Z,410.67
2022-10-15T05:29:53.838Z,398.80
2022-10-15T05:34:51.630Z,393.83
2022-10-15T05:37:18.372Z,394.38
2022-10-15T05:39:45.125Z,394.45
2022-10-15T05:42:11.970Z,393.65
2022-10-15T05:44:42.413Z,393.58
2022-10-15T05:47:11.899Z,408.87
2022-10-15T05:49:40.559Z,372.33
2022-10-15T05:52:15.818Z,381.20
2022-10-15T05:55:01.241Z,384.45
2022-10-15T05:57:28.022Z,390.67
2022-10-15T05:59:56.947Z,387.50
2022-10-15T06:02:24.142Z,390.25
2022-10-15T06:04:53.349Z,375.17
2022-10-15T06:07:20.490Z,385.25
2022-10-15T06:09:47.467Z,378.50
2022-10-15T06:12:15.678Z,377.27
2022-10-15T06:14:42.260Z,377.10
2022-10-15T06:17:08.814Z,372.30
2022-10-15T06:19:35.388Z,379.30
2022-10-15T06:22:02.052Z,385.40
2022-10-15T06:24:28.650Z,379.92
2022-10-15T06:27:00.316Z,373.67
2022-10-15T06:29:30.289Z,379.35
2022-10-15T06:32:02.069Z,382.27
2022-10-15T06:34:28.732Z,382.90
2022-10-15T06:36:55.927Z,382.65
2022-10-15T06:39:24.150Z,376.00
2022-10-15T06:41:50.889Z,364.80
2022-10-15T06:44:17.521Z,367.45
2022-10-15T06:46:44.128Z,367.60
2022-10-15T06:49:10.762Z,380.23
2022-10-15T06:51:42.534Z,381.45
2022-10-15T06:54:09.122Z,385.25
2022-10-15T06:56:36.110Z,376.25
2022-10-15T06:59:02.739Z,367.50
2022-10-15T07:01:29.352Z,374.77
2022-10-15T07:03:55.968Z,380.30
2022-10-15T07:06:22.700Z,369.45
2022-10-15T07:08:55.507Z,375.37
2022-10-15T07:11:22.096Z,363.73
2022-10-15T07:13:48.689Z,369.60
2022-10-15T07:16:15.628Z,361.80
2022-10-15T07:18:42.190Z,375.67
2022-10-15T07:23:37.691Z,370.40
2022-10-15T07:26:04.437Z,375.07
2022-10-15T07:28:31.322Z,365.67
2022-10-15T07:31:04.480Z,363.00
2022-10-15T07:33:33.385Z,351.13
2022-10-15T07:36:06.611Z,340.48
2022-10-15T07:38:34.096Z,335.25
2022-10-15T07:41:02.672Z,331.58
2022-10-15T07:43:32.137Z,344.30
2022-10-15T07:45:58.660Z,344.35
2022-10-15T07:48:25.446Z,347.17
2022-10-15T07:51:00.492Z,332.20
2022-10-15T07:53:27.460Z,340.23
2022-10-15T07:55:59.983Z,348.13
2022-10-15T07:58:30.853Z,361.75
2022-10-15T08:01:02.866Z,358.90
2022-10-15T08:03:30.686Z,353.10
2022-10-15T08:06:00.295Z,357.70
2022-10-15T08:08:28.438Z,345.98
2022-10-15T08:10:55.127Z,347.13
2022-10-15T08:13:21.862Z,329.67
2022-10-15T08:15:50.919Z,339.70
2022-10-15T08:18:17.734Z,342.58
2022-10-15T08:20:44.325Z,357.52
2022-10-15T08:23:15.993Z,350.67
2022-10-15T08:25:42.761Z,356.65
2022-10-15T08:28:12.843Z,350.75
2022-10-15T08:30:39.477Z,343.85
2022-10-15T08:33:12.370Z,348.40
2022-10-15T08:35:43.633Z,339.42
2022-10-15T08:38:14.787Z,340.30
2022-10-15T08:40:54.645Z,369.30
2022-10-15T08:43:43.211Z,359.85
2022-10-15T08:46:39.797Z,380.92
2022-10-15T08:49:29.836Z,359.20
2022-10-15T08:52:06.984Z,357.27
2022-10-15T08:54:35.480Z,389.42
2022-10-15T08:57:17.068Z,356.77
2022-10-15T08:59:52.601Z,363.70
2022-10-15T09:02:42.412Z,403.35
2022-10-15T09:05:44.121Z,376.90
2022-10-15T09:08:31.681Z,379.42
2022-10-15T09:11:09.456Z,379.83
2022-10-15T09:13:42.342Z,378.15
2022-10-15T09:16:16.637Z,384.47
2022-10-15T09:18:49.978Z,382.50
2022-10-15T09:21:17.259Z,402.13
2022-10-15T09:23:45.299Z,397.02
2022-10-15T09:26:11.890Z,391.80
2022-10-15T09:28:58.881Z,406.42
2022-10-15T09:31:31.020Z,387.00
2022-10-15T09:34:12.729Z,393.67
2022-10-15T09:37:31.852Z,390.10
2022-10-15T09:40:35.693Z,401.45
2022-10-15T09:43:04.276Z,381.83
2022-10-15T09:45:31.185Z,404.73
2022-10-15T09:48:00.235Z,419.90
2022-10-15T09:50:37.051Z,415.77
2022-10-15T09:53:25.984Z,421.27
2022-10-15T09:56:13.829Z,400.30
2022-10-15T09:58:49.708Z,403.55
2022-10-15T10:01:24.032Z,398.70
2022-10-15T10:03:54.000Z,416.70
2022-10-15T10:06:23.243Z,414.20
2022-10-15T10:08:59.472Z,399.73
2022-10-15T10:11:27.340Z,391.30
2022-10-15T10:13:59.621Z,377.52
2022-10-15T10:16:27.706Z,376.73
2022-10-15T10:19:06.631Z,385.73
2022-10-15T10:21:39.241Z,365.08
2022-10-15T10:24:31.829Z,362.00
2022-10-15T10:26:59.768Z,358.77
2022-10-15T10:29:35.484Z,364.60
2022-10-15T10:32:19.045Z,349.33
2022-10-15T10:34:51.471Z,341.33
2022-10-15T10:37:19.406Z,339.35
2022-10-15T10:39:51.777Z,325.00
2022-10-15T10:42:19.483Z,338.77
2022-10-15T10:44:46.828Z,327.58
2022-10-15T10:47:15.077Z,284.92
2022-10-15T10:49:43.280Z,281.95
2022-10-15T10:52:29.087Z,287.73
2022-10-15T10:54:58.917Z,281.88
2022-10-15T10:57:50.922Z,245.45
2022-10-15T11:00:45.456Z,251.20
2022-10-15T11:03:34.480Z,265.25
2022-10-15T11:06:35.345Z,271.90
2022-10-15T11:09:15.726Z,260.70
2022-10-15T11:12:21.672Z,261.23
2022-10-15T11:14:59.207Z,269.27
2022-10-15T11:17:46.909Z,262.33
2022-10-15T11:20:57.714Z,253.85
2022-10-15T11:24:05.497Z,264.50
2022-10-15T11:26:59.256Z,262.73
2022-10-15T11:30:09.782Z,272.00
2022-10-15T11:33:08.129Z,263.45
2022-10-15T11:35:53.797Z,265.65
2022-10-15T11:38:29.463Z,266.03
2022-10-15T11:40:59.104Z,245.85
2022-10-15T11:43:28.557Z,246.10
2022-10-15T11:46:11.100Z,248.00
2022-10-15T11:48:56.290Z,267.98
2022-10-15T11:51:27.529Z,266.67
2022-10-15T11:54:13.164Z,281.38
2022-10-15T11:56:45.688Z,295.58
2022-10-15T11:59:30.442Z,311.85
2022-10-15T12:02:22.483Z,322.98
2022-10-15T12:04:56.755Z,345.48
2022-10-15T12:07:30.987Z,347.33
2022-10-15T12:10:05.018Z,321.55
2022-10-15T12:12:46.186Z,330.38
2022-10-15T12:15:33.531Z,336.45
2022-10-15T12:18:37.076Z,328.70
2022-10-15T12:21:03.727Z,334.33
2022-10-15T12:23:36.185Z,327.40
2022-10-15T12:26:23.798Z,337.60
2022-10-15T12:28:58.376Z,340.20
2022-10-15T12:31:44.354Z,360.60
2022-10-15T12:34:27.452Z,355.27
2022-10-15T12:37:03.471Z,369.73
2022-10-15T12:39:51.173Z,373.77
2022-10-15T12:42:28.429Z,353.13
2022-10-15T12:44:57.116Z,356.02
2022-10-15T12:48:04.935Z,342.02
2022-10-15T12:50:34.205Z,345.73
2022-10-15T12:53:29.382Z,338.23
2022-10-15T12:56:11.950Z,344.85
2022-10-15T12:58:46.307Z,322.07
2022-10-15T13:01:12.911Z,340.88
2022-10-15T13:03:43.541Z,327.90
2022-10-15T13:06:36.592Z,341.98
2022-10-15T13:09:03.245Z,352.23
2022-10-15T13:11:48.212Z,344.48
2022-10-15T13:14:26.271Z,344.27
2022-10-15T13:16:55.826Z,349.45
2022-10-15T13:19:39.451Z,343.80
2022-10-15T13:22:19.733Z,327.98
2022-10-15T13:24:46.508Z,316.70
2022-10-15T13:27:32.678Z,306.02
2022-10-15T13:30:06.843Z,317.92
2022-10-15T13:32:38.643Z,313.77
2022-10-15T13:35:12.080Z,313.63
2022-10-15T13:37:41.009Z,309.45
2022-10-15T13:40:08.672Z,323.50
2022-10-15T13:42:35.563Z,316.85
2022-10-15T13:45:19.167Z,298.52
2022-10-15T13:47:52.199Z,301.95
2022-10-15T13:50:30.615Z,300.60
2022-10-15T13:53:09.470Z,304.03
2022-10-15T13:55:46.038Z,312.73
2022-10-15T13:58:15.569Z,308.58
2022-10-15T14:00:42.419Z,298.67
2022-10-15T14:03:16.085Z,285.33
2022-10-15T14:05:48.005Z,293.43
2022-10-15T14:08:27.838Z,285.90
2022-10-15T14:10:58.579Z,278.65
2022-10-15T14:13:26.580Z,240.10
2022-10-15T14:16:00.360Z,211.30
2022-10-15T14:18:37.656Z,181.35
2022-10-15T14:21:11.501Z,171.88
2022-10-15T14:23:39.129Z,158.48
2022-10-15T14:26:06.262Z,171.00
2022-10-15T14:28:34.502Z,184.75
2022-10-15T14:31:02.719Z,199.57
2022-10-15T14:33:38.047Z,223.57
2022-10-15T14:36:06.461Z,219.10
2022-10-15T14:38:33.733Z,225.52
2022-10-15T14:41:18.691Z,228.15
2022-10-15T14:43:45.333Z,231.32
2022-10-15T14:46:17.822Z,228.90
2022-10-15T14:48:44.826Z,232.05
2022-10-15T14:51:24.749Z,235.13
2022-10-15T14:53:53.100Z,254.25
2022-10-15T14:56:23.877Z,256.60
2022-10-15T14:58:56.798Z,256.07
2022-10-15T15:01:24.580Z,242.83
2022-10-15T15:03:53.761Z,259.33
2022-10-15T15:06:20.821Z,275.33
2022-10-15T15:08:47.554Z,290.80
2022-10-15T15:11:19.265Z,291.95
2022-10-15T15:13:46.240Z,317.37
2022-10-15T15:16:15.627Z,325.90
2022-10-15T15:18:43.893Z,318.25
2022-10-15T15:21:18.281Z,344.98
2022-10-15T15:23:45.007Z,344.90
2022-10-15T15:26:11.567Z,352.67
2022-10-15T15:28:38.204Z,333.50
2022-10-15T15:31:08.108Z,382.20
2022-10-15T15:33:35.177Z,383.55
2022-10-15T15:36:21.019Z,389.15
2022-10-15T15:38:50.432Z,394.08
2022-10-15T15:41:19.717Z,379.60
2022-10-15T15:43:46.936Z,406.48
2022-10-15T15:46:13.645Z,383.13
2022-10-15T15:48:40.454Z,395.35
2022-10-15T15:51:19.161Z,399.58
2022-10-15T15:53:45.931Z,381.63
2022-10-15T15:56:12.555Z,386.02
2022-10-15T15:58:39.245Z,369.02
2022-10-15T16:01:05.945Z,368.97
2022-10-15T16:03:32.600Z,371.75
2022-10-15T16:05:59.244Z,364.35
2022-10-15T16:08:25.913Z,385.05
2022-10-15T16:10:52.493Z,376.95
2022-10-15T16:13:19.391Z,379.23
2022-10-15T16:15:46.031Z,371.00
2022-10-15T16:18:12.657Z,384.15
2022-10-15T16:20:46.309Z,389.48
2022-10-15T16:23:14.670Z,394.25
2022-10-15T16:25:41.522Z,400.00
2022-10-15T16:28:08.196Z,396.15
2022-10-15T16:30:34.909Z,394.83
2022-10-15T16:33:01.510Z,392.63
2022-10-15T16:35:28.107Z,380.97
2022-10-15T16:37:56.196Z,390.70
2022-10-15T16:40:23.797Z,379.67
2022-10-15T16:42:50.423Z,380.65
2022-10-15T16:45:17.256Z,377.40
2022-10-15T16:47:43.819Z,365.25
2022-10-15T16:50:10.524Z,365.07
2022-10-15T16:52:37.114Z,368.15
2022-10-15T16:55:03.829Z,376.15
2022-10-15T16:57:30.444Z,358.92
2022-10-15T16:59:57.011Z,358.08
2022-10-15T17:02:23.757Z,365.63
2022-10-15T17:04:50.555Z,360.77
2022-10-15T17:07:17.277Z,371.13
2022-10-15T17:09:44.931Z,375.55
2022-10-15T17:12:11.966Z,366.80
2022-10-15T17:14:38.590Z,358.77
2022-10-15T17:17:07.613Z,362.27
2022-10-15T17:19:35.046Z,374.10
2022-10-15T17:22:01.664Z,372.23
2022-10-15T17:24:28.293Z,372.10
2022-10-15T17:26:57.761Z,373.83
2022-10-15T17:29:27.778Z,373.48
2022-10-15T17:31:57.487Z,371.08
2022-10-15T17:34:24.204Z,356.27
2022-10-15T17:36:52.178Z,358.90
2022-10-15T17:39:20.573Z,352.80
2022-10-15T17:41:47.586Z,357.30
2022-10-15T17:44:14.319Z,358.92
2022-10-15T17:46:41.462Z,361.00
2022-10-15T17:49:09.686Z,366.05
2022-10-15T17:51:37.203Z,373.35
2022-10-15T17:54:06.118Z,359.58
2022-10-15T17:56:38.283Z,354.40
2022-10-15T17:59:07.478Z,356.92
2022-10-15T18:01:57.153Z,362.45
2022-10-15T18:04:23.666Z,364.60
2022-10-15T18:06:50.294Z,357.48
2022-10-15T18:09:27.599Z,351.95
2022-10-15T18:12:01.163Z,338.90
2022-10-15T18:14:30.281Z,345.23
2022-10-15T18:16:57.147Z,358.90
2022-10-15T18:19:25.798Z,363.20
2022-10-15T18:21:52.918Z,362.70
2022-10-15T18:24:21.946Z,369.67
2022-10-15T18:26:50.046Z,369.83
2022-10-15T18:29:16.704Z,372.83
2022-10-15T18:31:45.245Z,373.07
2022-10-15T18:34:11.897Z,370.38
2022-10-15T18:36:41.522Z,355.10
2022-10-15T18:39:08.114Z,360.67
2022-10-15T18:41:37.274Z,354.15
2022-10-15T18:44:06.734Z,363.10
2022-10-15T18:46:34.866Z,372.63
2022-10-15T18:49:02.450Z,362.00
2022-10-15T18:51:30.771Z,362.77
2022-10-15T18:53:58.436Z,369.05
2022-10-15T18:56:25.396Z,369.20
2022-10-15T18:58:54.713Z,375.42
2022-10-15T19:01:43.995Z,368.60
2022-10-15T19:04:13.835Z,368.58
2022-10-15T19:06:46.292Z,365.92
2022-10-15T19:09:15.298Z,352.95
2022-10-15T19:11:43.877Z,354.27
2022-10-15T19:14:11.103Z,357.33
2022-10-15T19:16:37.805Z,346.63
2022-10-15T19:19:12.883Z,343.25
2022-10-15T19:21:39.481Z,336.27
2022-10-15T19:24:06.225Z,332.65
2022-10-15T19:26:33.183Z,337.15
2022-10-15T19:29:01.639Z,339.73
2022-10-15T19:31:37.216Z,345.05
2022-10-15T19:34:04.687Z,351.35
2022-10-15T19:36:37.808Z,353.40
2022-10-15T19:39:07.588Z,354.07
2022-10-15T19:41:42.572Z,361.15
2022-10-15T19:44:11.063Z,360.50
2022-10-15T19:46:38.587Z,377.30
2022-10-15T19:49:06.621Z,364.92
2022-10-15T19:51:33.780Z,366.45
2022-10-15T19:54:00.371Z,371.65
2022-10-15T19:56:31.377Z,363.13
2022-10-15T19:58:59.855Z,359.27
2022-10-15T20:01:27.791Z,373.25
2022-10-15T20:03:54.855Z,380.42
2022-10-15T20:06:21.450Z,371.83
2022-10-15T20:08:48.208Z,381.48
2022-10-15T20:11:14.824Z,378.77
2022-10-15T20:13:41.340Z,371.50
2022-10-15T20:16:10.487Z,395.30
2022-10-15T20:18:37.396Z,389.98
2022-10-15T20:21:12.368Z,371.87
2022-10-15T20:23:40.847Z,379.23
2022-10-15T20:26:09.644Z,384.65
2022-10-15T20:28:37.886Z,380.23
2022-10-15T20:31:12.524Z,372.40
2022-10-15T20:33:41.097Z,380.40
2022-10-15T20:36:14.452Z,371.23
2022-10-15T20:38:41.715Z,343.33
2022-10-15T20:41:10.828Z,371.38
2022-10-15T20:43:37.807Z,367.45
2022-10-15T20:46:08.640Z,360.95
2022-10-15T20:48:35.559Z,357.60
2022-10-15T20:51:02.175Z,374.85
2022-10-15T20:53:29.388Z,369.70
2022-10-15T20:55:56.042Z,364.95
2022-10-15T20:58:22.692Z,382.65
2022-10-15T21:00:49.234Z,377.45
2022-10-15T21:03:15.793Z,376.70
2022-10-15T21:05:42.434Z,380.48
2022-10-15T21:08:09.100Z,375.55
2022-10-15T21:10:35.719Z,372.65
2022-10-15T21:13:02.378Z,372.52
2022-10-15T21:15:30.613Z,361.47
2022-10-15T21:17:58.120Z,364.33
2022-10-15T21:20:26.077Z,382.70
2022-10-15T21:22:53.207Z,373.83
2022-10-15T21:25:20.238Z,366.33
2022-10-15T21:27:46.911Z,373.08
2022-10-15T21:30:13.562Z,361.30
2022-10-15T21:32:40.179Z,373.50
2022-10-15T21:35:07.192Z,363.23
2022-10-15T21:37:35.628Z,364.40
2022-10-15T21:40:02.745Z,362.73
2022-10-15T21:42:30.383Z,365.40
2022-10-15T21:44:58.010Z,357.23
2022-10-15T21:47:25.274Z,364.10
2022-10-15T21:49:52.129Z,362.58
2022-10-15T21:52:18.659Z,372.17
2022-10-15T21:54:45.775Z,373.20
2022-10-15T21:57:12.401Z,371.83
2022-10-15T21:59:39.066Z,372.55
2022-10-15T22:02:05.859Z,387.87
2022-10-15T22:04:35.702Z,399.10
2022-10-15T22:07:02.985Z,385.98
2022-10-15T22:09:30.049Z,386.73
2022-10-15T22:11:56.739Z,388.08
2022-10-15T22:14:23.360Z,383.67
2022-10-15T22:16:49.869Z,366.50
2022-10-15T22:19:17.451Z,374.77
2022-10-15T22:21:44.945Z,371.83
2022-10-15T22:24:14.838Z,376.20
2022-10-15T22:26:44.240Z,376.43
2022-10-15T22:29:20.081Z,370.67
2022-10-15T22:31:47.424Z,349.13
2022-10-15T22:34:14.391Z,368.08
2022-10-15T22:36:41.003Z,366.00
2022-10-15T22:39:08.671Z,362.80
2022-10-15T22:41:39.728Z,366.25
2022-10-15T22:44:14.083Z,367.77
2022-10-15T22:46:41.276Z,379.77
2022-10-15T22:49:08.626Z,373.83
2022-10-15T22:51:35.426Z,373.58
2022-10-15T22:54:02.122Z,384.80
2022-10-15T22:56:29.525Z,377.33
2022-10-15T22:58:57.659Z,381.45
2022-10-15T23:01:26.911Z,380.65
2022-10-15T23:03:56.638Z,382.17
2022-10-15T23:06:24.007Z,392.65
2022-10-15T23:08:51.592Z,391.40
2022-10-15T23:11:26.065Z,385.65
2022-10-15T23:13:58.285Z,371.38
2022-10-15T23:16:30.061Z,398.55
2022-10-15T23:19:02.081Z,417.00
2022-10-15T23:21:37.902Z,397.45
2022-10-15T23:24:06.010Z,397.40
2022-10-15T23:26:32.631Z,419.38
2022-10-15T23:29:01.558Z,419.27
2022-10-15T23:31:32.268Z,406.10
2022-10-15T23:33:59.521Z,407.42
2022-10-15T23:36:27.348Z,403.52
2022-10-15T23:39:02.916Z,292.83
2022-10-15T23:41:30.280Z,386.38
2022-10-15T23:43:57.286Z,400.15
2022-10-15T23:46:24.211Z,402.10
2022-10-15T23:48:51.446Z,397.83
2022-10-15T23:51:26.399Z,414.52
2022-10-15T23:53:54.505Z,409.63
2022-10-15T23:56:22.076Z,399.05
2022-10-15T23:58:54.164Z,387.05
